sensor_id;sensor_type;location;lat;lon;timestamp;temperature;humidity
57829;DHT22;43657;52.698;6.314;2022-08-03T00:00:54;18.20;99.90
57829;DHT22;43657;52.698;6.314;2022-08-03T00:03:50;18.20;99.90
57829;DHT22;43657;52.698;6.314;2022-08-03T00:06:45;18.20;99.90
57829;DHT22;43657;52.698;6.314;2022-08-03T00:09:32;18.10;99.90
57829;DHT22;43657;52.698;6.314;2022-08-03T00:12:28;18.10;99.90
57829;DHT22;43657;52.698;6.314;2022-08-03T00:18:49;18.00;99.90
57829;DHT22;43657;52.698;6.314;2022-08-03T00:22:06;17.90;99.90
57829;DHT22;43657;52.698;6.314;2022-08-03T00:24:49;17.90;99.90
57829;DHT22;43657;52.698;6.314;2022-08-03T00:31:17;17.70;99.90
57829;DHT22;43657;52.698;6.314;2022-08-03T00:34:26;17.70;99.90
57829;DHT22;43657;52.698;6.314;2022-08-03T00:37:42;17.80;99.90
57829;DHT22;43657;52.698;6.314;2022-08-03T00:40:21;17.70;99.90
57829;DHT22;43657;52.698;6.314;2022-08-03T00:43:08;17.80;99.90
57829;DHT22;43657;52.698;6.314;2022-08-03T00:45:50;17.70;99.90
57829;DHT22;43657;52.698;6.314;2022-08-03T00:51:50;17.70;99.90
57829;DHT22;43657;52.698;6.314;2022-08-03T00:54:29;17.60;99.90
57829;DHT22;43657;52.698;6.314;2022-08-03T00:57:07;17.50;99.90
57829;DHT22;43657;52.698;6.314;2022-08-03T01:00:24;17.50;99.90
57829;DHT22;43657;52.698;6.314;2022-08-03T01:03:24;17.40;99.90
57829;DHT22;43657;52.698;6.314;2022-08-03T01:06:18;17.40;99.90
57829;DHT22;43657;52.698;6.314;2022-08-03T01:33:40;17.00;99.90
57829;DHT22;43657;52.698;6.314;2022-08-03T01:44:22;16.90;99.90
57829;DHT22;43657;52.698;6.314;2022-08-03T01:51:04;16.90;99.90
57829;DHT22;43657;52.698;6.314;2022-08-03T01:56:57;16.80;99.90
57829;DHT22;43657;52.698;6.314;2022-08-03T02:04:21;16.70;99.90
57829;DHT22;43657;52.698;6.314;2022-08-03T02:09:49;16.70;99.90
57829;DHT22;43657;52.698;6.314;2022-08-03T02:12:15;16.60;99.90
57829;DHT22;43657;52.698;6.314;2022-08-03T02:14:43;16.60;99.90
57829;DHT22;43657;52.698;6.314;2022-08-03T02:17:11;16.60;99.90
57829;DHT22;43657;52.698;6.314;2022-08-03T02:19:39;16.60;99.90
57829;DHT22;43657;52.698;6.314;2022-08-03T02:22:09;16.60;99.90
57829;DHT22;43657;52.698;6.314;2022-08-03T02:24:35;16.50;99.90
57829;DHT22;43657;52.698;6.314;2022-08-03T02:27:04;16.50;99.90
57829;DHT22;43657;52.698;6.314;2022-08-03T02:29:33;16.50;99.90
57829;DHT22;43657;52.698;6.314;2022-08-03T02:32:01;16.50;99.90
57829;DHT22;43657;52.698;6.314;2022-08-03T02:34:29;16.50;99.90
57829;DHT22;43657;52.698;6.314;2022-08-03T02:36:57;16.50;99.90
57829;DHT22;43657;52.698;6.314;2022-08-03T02:39:27;16.50;99.90
57829;DHT22;43657;52.698;6.314;2022-08-03T02:41:56;16.50;99.90
57829;DHT22;43657;52.698;6.314;2022-08-03T02:44:27;16.50;99.90
57829;DHT22;43657;52.698;6.314;2022-08-03T02:47:01;16.50;99.90
57829;DHT22;43657;52.698;6.314;2022-08-03T02:49:28;16.50;99.90
57829;DHT22;43657;52.698;6.314;2022-08-03T02:51:55;16.50;99.90
57829;DHT22;43657;52.698;6.314;2022-08-03T02:54:23;16.50;99.90
57829;DHT22;43657;52.698;6.314;2022-08-03T02:56:51;16.50;99.90
57829;DHT22;43657;52.698;6.314;2022-08-03T02:59:18;16.50;99.90
57829;DHT22;43657;52.698;6.314;2022-08-03T03:01:44;16.50;99.90
57829;DHT22;43657;52.698;6.314;2022-08-03T03:04:11;16.50;99.90
57829;DHT22;43657;52.698;6.314;2022-08-03T03:06:38;16.50;99.90
57829;DHT22;43657;52.698;6.314;2022-08-03T03:09:04;16.50;99.90
57829;DHT22;43657;52.698;6.314;2022-08-03T03:11:30;16.60;99.90
57829;DHT22;43657;52.698;6.314;2022-08-03T03:13:57;16.60;99.90
57829;DHT22;43657;52.698;6.314;2022-08-03T03:16:25;16.60;99.90
57829;DHT22;43657;52.698;6.314;2022-08-03T03:18:53;16.60;99.90
57829;DHT22;43657;52.698;6.314;2022-08-03T03:21:19;16.60;99.90
57829;DHT22;43657;52.698;6.314;2022-08-03T03:23:46;16.60;99.90
57829;DHT22;43657;52.698;6.314;2022-08-03T03:26:14;16.60;99.90
57829;DHT22;43657;52.698;6.314;2022-08-03T03:28:40;16.70;99.90
57829;DHT22;43657;52.698;6.314;2022-08-03T03:31:06;16.70;99.90
57829;DHT22;43657;52.698;6.314;2022-08-03T03:33:33;16.70;99.90
57829;DHT22;43657;52.698;6.314;2022-08-03T03:36:00;16.60;99.90
57829;DHT22;43657;52.698;6.314;2022-08-03T03:38:26;16.60;99.90
57829;DHT22;43657;52.698;6.314;2022-08-03T03:40:52;16.70;99.90
57829;DHT22;43657;52.698;6.314;2022-08-03T03:43:18;16.60;99.90
57829;DHT22;43657;52.698;6.314;2022-08-03T03:45:44;16.70;99.90
57829;DHT22;43657;52.698;6.314;2022-08-03T03:48:11;16.60;99.90
57829;DHT22;43657;52.698;6.314;2022-08-03T03:50:37;16.70;99.90
57829;DHT22;43657;52.698;6.314;2022-08-03T03:53:08;16.70;99.90
57829;DHT22;43657;52.698;6.314;2022-08-03T03:55:36;16.70;99.90
57829;DHT22;43657;52.698;6.314;2022-08-03T03:58:02;16.70;99.90
57829;DHT22;43657;52.698;6.314;2022-08-03T04:00:28;16.70;99.90
57829;DHT22;43657;52.698;6.314;2022-08-03T04:02:55;16.60;99.90
57829;DHT22;43657;52.698;6.314;2022-08-03T04:05:20;16.70;99.90
57829;DHT22;43657;52.698;6.314;2022-08-03T04:08:16;16.70;99.90
57829;DHT22;43657;52.698;6.314;2022-08-03T04:11:21;16.70;99.90
57829;DHT22;43657;52.698;6.314;2022-08-03T04:13:55;16.70;99.90
57829;DHT22;43657;52.698;6.314;2022-08-03T04:16:25;16.70;99.90
57829;DHT22;43657;52.698;6.314;2022-08-03T04:19:00;16.70;99.90
57829;DHT22;43657;52.698;6.314;2022-08-03T04:21:27;16.70;99.90
57829;DHT22;43657;52.698;6.314;2022-08-03T04:23:59;16.60;99.90
57829;DHT22;43657;52.698;6.314;2022-08-03T04:26:29;16.60;99.90
57829;DHT22;43657;52.698;6.314;2022-08-03T04:28:56;16.70;99.90
57829;DHT22;43657;52.698;6.314;2022-08-03T04:31:23;16.70;99.90
57829;DHT22;43657;52.698;6.314;2022-08-03T04:33:51;16.70;99.90
57829;DHT22;43657;52.698;6.314;2022-08-03T04:36:21;16.70;99.90
57829;DHT22;43657;52.698;6.314;2022-08-03T04:39:23;16.70;99.90
57829;DHT22;43657;52.698;6.314;2022-08-03T04:41:59;16.70;99.90
57829;DHT22;43657;52.698;6.314;2022-08-03T04:44:27;16.80;99.90
57829;DHT22;43657;52.698;6.314;2022-08-03T04:46:53;16.80;99.90
57829;DHT22;43657;52.698;6.314;2022-08-03T04:49:20;16.80;99.90
57829;DHT22;43657;52.698;6.314;2022-08-03T04:51:47;16.90;99.90
57829;DHT22;43657;52.698;6.314;2022-08-03T04:54:14;16.90;99.90
57829;DHT22;43657;52.698;6.314;2022-08-03T04:56:40;16.90;99.90
57829;DHT22;43657;52.698;6.314;2022-08-03T04:59:07;16.90;99.90
57829;DHT22;43657;52.698;6.314;2022-08-03T05:01:32;17.00;99.90
57829;DHT22;43657;52.698;6.314;2022-08-03T05:03:58;17.00;99.90
57829;DHT22;43657;52.698;6.314;2022-08-03T05:06:24;17.10;99.90
57829;DHT22;43657;52.698;6.314;2022-08-03T05:08:50;17.10;99.90
57829;DHT22;43657;52.698;6.314;2022-08-03T05:11:16;17.30;99.90
57829;DHT22;43657;52.698;6.314;2022-08-03T05:13:42;17.60;99.90
57829;DHT22;43657;52.698;6.314;2022-08-03T05:16:08;17.80;99.90
57829;DHT22;43657;52.698;6.314;2022-08-03T05:18:34;18.10;99.90
57829;DHT22;43657;52.698;6.314;2022-08-03T05:21:00;18.40;99.90
57829;DHT22;43657;52.698;6.314;2022-08-03T05:23:26;18.60;99.90
57829;DHT22;43657;52.698;6.314;2022-08-03T05:25:51;18.80;99.90
57829;DHT22;43657;52.698;6.314;2022-08-03T05:28:17;18.90;99.90
57829;DHT22;43657;52.698;6.314;2022-08-03T05:30:43;19.00;99.90
57829;DHT22;43657;52.698;6.314;2022-08-03T05:33:09;19.10;99.90
57829;DHT22;43657;52.698;6.314;2022-08-03T05:35:36;19.20;99.90
57829;DHT22;43657;52.698;6.314;2022-08-03T05:38:04;19.20;99.90
57829;DHT22;43657;52.698;6.314;2022-08-03T05:40:30;19.30;99.90
57829;DHT22;43657;52.698;6.314;2022-08-03T05:42:56;19.30;99.90
57829;DHT22;43657;52.698;6.314;2022-08-03T05:45:22;19.30;99.90
57829;DHT22;43657;52.698;6.314;2022-08-03T05:47:48;19.30;99.90
57829;DHT22;43657;52.698;6.314;2022-08-03T05:50:18;19.20;99.90
57829;DHT22;43657;52.698;6.314;2022-08-03T05:52:43;19.20;99.90
57829;DHT22;43657;52.698;6.314;2022-08-03T05:55:10;19.20;99.90
57829;DHT22;43657;52.698;6.314;2022-08-03T05:57:36;19.20;99.90
57829;DHT22;43657;52.698;6.314;2022-08-03T06:00:09;19.20;99.90
57829;DHT22;43657;52.698;6.314;2022-08-03T06:02:35;19.20;99.90
57829;DHT22;43657;52.698;6.314;2022-08-03T06:05:01;19.20;99.90
57829;DHT22;43657;52.698;6.314;2022-08-03T06:07:27;19.20;99.90
57829;DHT22;43657;52.698;6.314;2022-08-03T06:09:52;19.30;99.90
57829;DHT22;43657;52.698;6.314;2022-08-03T06:12:18;19.30;99.90
57829;DHT22;43657;52.698;6.314;2022-08-03T06:14:44;19.40;99.90
57829;DHT22;43657;52.698;6.314;2022-08-03T06:17:09;19.40;99.90
57829;DHT22;43657;52.698;6.314;2022-08-03T06:19:35;19.40;99.90
57829;DHT22;43657;52.698;6.314;2022-08-03T06:22:00;19.50;99.90
57829;DHT22;43657;52.698;6.314;2022-08-03T06:24:26;19.60;99.90
57829;DHT22;43657;52.698;6.314;2022-08-03T06:26:51;19.60;99.90
57829;DHT22;43657;52.698;6.314;2022-08-03T06:29:17;19.60;99.90
57829;DHT22;43657;52.698;6.314;2022-08-03T06:31:42;19.70;99.90
57829;DHT22;43657;52.698;6.314;2022-08-03T06:34:08;19.80;99.90
57829;DHT22;43657;52.698;6.314;2022-08-03T06:36:34;19.80;99.90
57829;DHT22;43657;52.698;6.314;2022-08-03T06:39:00;19.80;99.90
57829;DHT22;43657;52.698;6.314;2022-08-03T06:41:26;19.80;99.90
57829;DHT22;43657;52.698;6.314;2022-08-03T06:43:52;19.80;99.90
57829;DHT22;43657;52.698;6.314;2022-08-03T06:46:19;19.90;99.90
57829;DHT22;43657;52.698;6.314;2022-08-03T06:48:44;19.80;99.90
57829;DHT22;43657;52.698;6.314;2022-08-03T06:51:10;19.90;99.90
57829;DHT22;43657;52.698;6.314;2022-08-03T06:53:36;19.90;99.90
57829;DHT22;43657;52.698;6.314;2022-08-03T06:56:04;19.90;99.90
57829;DHT22;43657;52.698;6.314;2022-08-03T06:58:30;20.00;99.90
57829;DHT22;43657;52.698;6.314;2022-08-03T07:00:55;20.10;99.90
57829;DHT22;43657;52.698;6.314;2022-08-03T07:03:21;20.10;99.90
57829;DHT22;43657;52.698;6.314;2022-08-03T07:05:47;20.10;99.90
57829;DHT22;43657;52.698;6.314;2022-08-03T07:08:13;20.20;99.90
57829;DHT22;43657;52.698;6.314;2022-08-03T07:10:39;20.20;99.90
57829;DHT22;43657;52.698;6.314;2022-08-03T07:13:05;20.30;99.90
57829;DHT22;43657;52.698;6.314;2022-08-03T07:15:31;20.30;99.90
57829;DHT22;43657;52.698;6.314;2022-08-03T07:17:57;20.40;99.90
57829;DHT22;43657;52.698;6.314;2022-08-03T07:20:23;20.50;99.90
57829;DHT22;43657;52.698;6.314;2022-08-03T07:22:49;20.50;99.90
57829;DHT22;43657;52.698;6.314;2022-08-03T07:25:14;20.50;99.90
57829;DHT22;43657;52.698;6.314;2022-08-03T07:27:47;20.60;99.90
57829;DHT22;43657;52.698;6.314;2022-08-03T07:30:14;20.70;99.90
57829;DHT22;43657;52.698;6.314;2022-08-03T07:32:40;20.70;99.90
57829;DHT22;43657;52.698;6.314;2022-08-03T07:35:06;20.80;99.90
57829;DHT22;43657;52.698;6.314;2022-08-03T07:37:33;20.80;99.90
57829;DHT22;43657;52.698;6.314;2022-08-03T07:40:00;20.80;99.90
57829;DHT22;43657;52.698;6.314;2022-08-03T07:42:27;20.90;99.90
57829;DHT22;43657;52.698;6.314;2022-08-03T07:44:53;20.90;99.90
57829;DHT22;43657;52.698;6.314;2022-08-03T07:47:26;21.00;99.90
57829;DHT22;43657;52.698;6.314;2022-08-03T07:49:53;21.00;99.90
57829;DHT22;43657;52.698;6.314;2022-08-03T07:52:19;21.10;99.90
57829;DHT22;43657;52.698;6.314;2022-08-03T07:55:05;21.10;99.90
57829;DHT22;43657;52.698;6.314;2022-08-03T07:57:30;21.30;99.90
57829;DHT22;43657;52.698;6.314;2022-08-03T07:59:56;21.30;99.90
57829;DHT22;43657;52.698;6.314;2022-08-03T08:02:22;21.40;99.90
57829;DHT22;43657;52.698;6.314;2022-08-03T08:04:48;21.40;99.90
57829;DHT22;43657;52.698;6.314;2022-08-03T08:07:14;21.50;99.90
57829;DHT22;43657;52.698;6.314;2022-08-03T08:09:39;21.50;99.90
57829;DHT22;43657;52.698;6.314;2022-08-03T08:12:05;21.60;99.90
57829;DHT22;43657;52.698;6.314;2022-08-03T08:14:33;21.80;99.90
57829;DHT22;43657;52.698;6.314;2022-08-03T08:16:58;21.90;99.90
57829;DHT22;43657;52.698;6.314;2022-08-03T08:19:24;22.10;99.90
57829;DHT22;43657;52.698;6.314;2022-08-03T08:21:49;22.60;99.90
57829;DHT22;43657;52.698;6.314;2022-08-03T08:24:15;23.40;99.90
57829;DHT22;43657;52.698;6.314;2022-08-03T08:26:41;24.20;99.90
57829;DHT22;43657;52.698;6.314;2022-08-03T08:29:06;24.90;99.90
57829;DHT22;43657;52.698;6.314;2022-08-03T08:31:32;25.60;99.90
57829;DHT22;43657;52.698;6.314;2022-08-03T08:33:57;26.20;99.90
57829;DHT22;43657;52.698;6.314;2022-08-03T08:36:23;26.80;99.90
57829;DHT22;43657;52.698;6.314;2022-08-03T08:38:48;27.40;99.90
57829;DHT22;43657;52.698;6.314;2022-08-03T08:41:15;27.90;99.90
57829;DHT22;43657;52.698;6.314;2022-08-03T08:43:41;28.30;99.90
57829;DHT22;43657;52.698;6.314;2022-08-03T08:46:10;28.70;99.90
57829;DHT22;43657;52.698;6.314;2022-08-03T08:48:40;29.00;99.90
57829;DHT22;43657;52.698;6.314;2022-08-03T08:51:08;29.40;99.90
57829;DHT22;43657;52.698;6.314;2022-08-03T08:53:36;29.70;99.90
57829;DHT22;43657;52.698;6.314;2022-08-03T08:56:03;30.00;99.90
57829;DHT22;43657;52.698;6.314;2022-08-03T08:58:35;30.10;99.90
57829;DHT22;43657;52.698;6.314;2022-08-03T09:01:02;30.10;99.90
57829;DHT22;43657;52.698;6.314;2022-08-03T09:03:28;30.20;99.90
57829;DHT22;43657;52.698;6.314;2022-08-03T09:05:54;30.30;99.90
57829;DHT22;43657;52.698;6.314;2022-08-03T09:08:20;30.40;99.90
57829;DHT22;43657;52.698;6.314;2022-08-03T09:10:47;30.40;99.90
57829;DHT22;43657;52.698;6.314;2022-08-03T09:13:13;30.30;98.30
57829;DHT22;43657;52.698;6.314;2022-08-03T09:15:39;30.40;97.80
57829;DHT22;43657;52.698;6.314;2022-08-03T09:18:06;30.40;97.20
57829;DHT22;43657;52.698;6.314;2022-08-03T09:20:33;30.50;96.40
57829;DHT22;43657;52.698;6.314;2022-08-03T09:23:08;30.50;94.90
57829;DHT22;43657;52.698;6.314;2022-08-03T09:25:40;30.50;92.10
57829;DHT22;43657;52.698;6.314;2022-08-03T09:30:36;30.60;92.00
57829;DHT22;43657;52.698;6.314;2022-08-03T09:33:04;30.60;92.50
57829;DHT22;43657;52.698;6.314;2022-08-03T09:35:30;30.60;90.00
57829;DHT22;43657;52.698;6.314;2022-08-03T09:38:13;30.50;90.30
57829;DHT22;43657;52.698;6.314;2022-08-03T09:40:40;30.40;85.90
57829;DHT22;43657;52.698;6.314;2022-08-03T09:43:06;30.50;91.00
57829;DHT22;43657;52.698;6.314;2022-08-03T09:45:36;30.60;90.30
57829;DHT22;43657;52.698;6.314;2022-08-03T09:48:27;30.70;90.50
57829;DHT22;43657;52.698;6.314;2022-08-03T09:51:00;30.80;82.80
57829;DHT22;43657;52.698;6.314;2022-08-03T09:53:28;30.80;86.90
57829;DHT22;43657;52.698;6.314;2022-08-03T09:56:00;30.90;87.90
57829;DHT22;43657;52.698;6.314;2022-08-03T09:58:27;30.90;85.60
57829;DHT22;43657;52.698;6.314;2022-08-03T10:01:01;31.00;85.10
57829;DHT22;43657;52.698;6.314;2022-08-03T10:03:34;31.20;85.10
57829;DHT22;43657;52.698;6.314;2022-08-03T10:06:14;31.40;82.80
57829;DHT22;43657;52.698;6.314;2022-08-03T10:08:40;31.50;78.40
57829;DHT22;43657;52.698;6.314;2022-08-03T10:11:06;31.60;82.10
57829;DHT22;43657;52.698;6.314;2022-08-03T10:13:31;31.60;81.10
57829;DHT22;43657;52.698;6.314;2022-08-03T10:15:57;31.60;80.80
57829;DHT22;43657;52.698;6.314;2022-08-03T10:18:23;31.70;80.20
57829;DHT22;43657;52.698;6.314;2022-08-03T10:20:52;31.70;78.80
57829;DHT22;43657;52.698;6.314;2022-08-03T10:23:19;31.60;77.80
57829;DHT22;43657;52.698;6.314;2022-08-03T10:25:47;31.50;78.00
57829;DHT22;43657;52.698;6.314;2022-08-03T10:28:16;31.50;78.40
57829;DHT22;43657;52.698;6.314;2022-08-03T10:30:44;31.50;76.30
57829;DHT22;43657;52.698;6.314;2022-08-03T10:33:17;31.60;76.60
57829;DHT22;43657;52.698;6.314;2022-08-03T10:35:43;31.60;75.80
57829;DHT22;43657;52.698;6.314;2022-08-03T10:38:15;31.60;76.20
57829;DHT22;43657;52.698;6.314;2022-08-03T10:40:41;31.70;75.20
57829;DHT22;43657;52.698;6.314;2022-08-03T10:43:32;31.70;75.20
57829;DHT22;43657;52.698;6.314;2022-08-03T10:45:59;31.90;74.50
57829;DHT22;43657;52.698;6.314;2022-08-03T10:48:27;32.10;75.50
57829;DHT22;43657;52.698;6.314;2022-08-03T10:50:53;32.30;74.50
57829;DHT22;43657;52.698;6.314;2022-08-03T10:53:36;32.40;73.30
57829;DHT22;43657;52.698;6.314;2022-08-03T10:56:02;32.50;73.10
57829;DHT22;43657;52.698;6.314;2022-08-03T10:58:51;32.60;73.20
57829;DHT22;43657;52.698;6.314;2022-08-03T11:01:18;32.70;72.20
57829;DHT22;43657;52.698;6.314;2022-08-03T11:06:26;33.00;70.20
57829;DHT22;43657;52.698;6.314;2022-08-03T11:11:40;33.40;69.90
57829;DHT22;43657;52.698;6.314;2022-08-03T11:14:19;33.50;70.10
57829;DHT22;43657;52.698;6.314;2022-08-03T11:16:48;33.60;69.90
57829;DHT22;43657;52.698;6.314;2022-08-03T11:19:18;33.60;69.20
57829;DHT22;43657;52.698;6.314;2022-08-03T11:27:29;33.80;68.30
57829;DHT22;43657;52.698;6.314;2022-08-03T11:35:22;33.90;67.80
57829;DHT22;43657;52.698;6.314;2022-08-03T11:40:39;34.00;66.90
57829;DHT22;43657;52.698;6.314;2022-08-03T11:46:08;34.10;67.20
57829;DHT22;43657;52.698;6.314;2022-08-03T11:48:49;34.20;64.80
57829;DHT22;43657;52.698;6.314;2022-08-03T11:51:19;34.20;66.00
57829;DHT22;43657;52.698;6.314;2022-08-03T11:53:45;34.20;66.40
57829;DHT22;43657;52.698;6.314;2022-08-03T11:56:12;34.30;65.60
57829;DHT22;43657;52.698;6.314;2022-08-03T11:58:46;34.30;64.80
57829;DHT22;43657;52.698;6.314;2022-08-03T12:01:13;34.40;64.30
57829;DHT22;43657;52.698;6.314;2022-08-03T12:03:41;34.50;64.10
57829;DHT22;43657;52.698;6.314;2022-08-03T12:06:09;34.50;63.90
57829;DHT22;43657;52.698;6.314;2022-08-03T12:08:35;34.50;63.40
57829;DHT22;43657;52.698;6.314;2022-08-03T12:11:03;34.40;63.80
57829;DHT22;43657;52.698;6.314;2022-08-03T12:13:44;34.40;63.00
57829;DHT22;43657;52.698;6.314;2022-08-03T12:16:20;34.30;62.20
57829;DHT22;43657;52.698;6.314;2022-08-03T12:18:59;34.10;62.50
57829;DHT22;43657;52.698;6.314;2022-08-03T12:21:26;34.10;61.90
57829;DHT22;43657;52.698;6.314;2022-08-03T12:24:00;34.10;63.20
57829;DHT22;43657;52.698;6.314;2022-08-03T12:26:27;34.10;62.50
57829;DHT22;43657;52.698;6.314;2022-08-03T12:28:52;34.10;63.10
57829;DHT22;43657;52.698;6.314;2022-08-03T12:31:18;34.10;63.00
57829;DHT22;43657;52.698;6.314;2022-08-03T12:34:03;34.10;62.70
57829;DHT22;43657;52.698;6.314;2022-08-03T12:36:32;34.10;59.90
57829;DHT22;43657;52.698;6.314;2022-08-03T12:39:04;34.10;61.70
57829;DHT22;43657;52.698;6.314;2022-08-03T12:41:32;34.10;61.30
57829;DHT22;43657;52.698;6.314;2022-08-03T12:43:59;34.10;61.70
57829;DHT22;43657;52.698;6.314;2022-08-03T12:46:30;34.20;62.00
57829;DHT22;43657;52.698;6.314;2022-08-03T12:49:11;34.10;60.80
57829;DHT22;43657;52.698;6.314;2022-08-03T12:54:18;34.00;62.30
57829;DHT22;43657;52.698;6.314;2022-08-03T12:59:30;34.10;60.30
57829;DHT22;43657;52.698;6.314;2022-08-03T13:01:57;34.10;61.00
57829;DHT22;43657;52.698;6.314;2022-08-03T13:04:33;34.10;60.80
57829;DHT22;43657;52.698;6.314;2022-08-03T13:07:05;34.10;60.60
57829;DHT22;43657;52.698;6.314;2022-08-03T13:09:43;34.10;60.50
57829;DHT22;43657;52.698;6.314;2022-08-03T13:14:39;34.10;58.70
57829;DHT22;43657;52.698;6.314;2022-08-03T13:17:05;34.20;59.90
57829;DHT22;43657;52.698;6.314;2022-08-03T13:19:35;34.30;60.40
57829;DHT22;43657;52.698;6.314;2022-08-03T13:24:42;34.40;59.60
57829;DHT22;43657;52.698;6.314;2022-08-03T13:27:08;34.40;60.30
57829;DHT22;43657;52.698;6.314;2022-08-03T13:29:34;34.40;60.30
57829;DHT22;43657;52.698;6.314;2022-08-03T13:32:00;34.40;60.00
57829;DHT22;43657;52.698;6.314;2022-08-03T13:34:26;34.10;59.60
57829;DHT22;43657;52.698;6.314;2022-08-03T13:36:52;33.90;60.30
57829;DHT22;43657;52.698;6.314;2022-08-03T13:39:18;33.80;60.80
57829;DHT22;43657;52.698;6.314;2022-08-03T13:41:47;33.70;61.20
57829;DHT22;43657;52.698;6.314;2022-08-03T13:44:12;33.60;60.40
57829;DHT22;43657;52.698;6.314;2022-08-03T13:46:38;33.40;61.00
57829;DHT22;43657;52.698;6.314;2022-08-03T13:49:04;33.40;61.90
57829;DHT22;43657;52.698;6.314;2022-08-03T13:51:31;33.40;62.20
57829;DHT22;43657;52.698;6.314;2022-08-03T13:53:56;33.30;61.70
57829;DHT22;43657;52.698;6.314;2022-08-03T13:56:24;33.30;62.00
57829;DHT22;43657;52.698;6.314;2022-08-03T13:58:50;33.30;61.70
57829;DHT22;43657;52.698;6.314;2022-08-03T14:01:16;33.10;61.30
57829;DHT22;43657;52.698;6.314;2022-08-03T14:03:41;33.00;61.80
57829;DHT22;43657;52.698;6.314;2022-08-03T14:06:07;32.80;61.70
57829;DHT22;43657;52.698;6.314;2022-08-03T14:08:33;32.70;62.00
57829;DHT22;43657;52.698;6.314;2022-08-03T14:10:58;32.50;62.70
57829;DHT22;43657;52.698;6.314;2022-08-03T14:13:24;32.50;62.80
57829;DHT22;43657;52.698;6.314;2022-08-03T14:15:50;32.40;62.90
57829;DHT22;43657;52.698;6.314;2022-08-03T14:18:17;32.30;62.30
57829;DHT22;43657;52.698;6.314;2022-08-03T14:20:43;32.20;61.60
57829;DHT22;43657;52.698;6.314;2022-08-03T14:23:09;32.00;59.70
57829;DHT22;43657;52.698;6.314;2022-08-03T14:25:35;32.00;60.90
57829;DHT22;43657;52.698;6.314;2022-08-03T14:28:00;32.00;60.50
57829;DHT22;43657;52.698;6.314;2022-08-03T14:30:26;32.10;61.00
57829;DHT22;43657;52.698;6.314;2022-08-03T14:32:51;32.10;60.60
57829;DHT22;43657;52.698;6.314;2022-08-03T14:35:17;32.00;60.50
57829;DHT22;43657;52.698;6.314;2022-08-03T14:37:43;31.90;60.50
57829;DHT22;43657;52.698;6.314;2022-08-03T14:40:08;31.90;61.30
57829;DHT22;43657;52.698;6.314;2022-08-03T14:42:34;31.90;61.60
57829;DHT22;43657;52.698;6.314;2022-08-03T14:44:59;32.10;62.10
57829;DHT22;43657;52.698;6.314;2022-08-03T14:47:25;32.20;62.60
57829;DHT22;43657;52.698;6.314;2022-08-03T14:49:51;32.30;62.20
57829;DHT22;43657;52.698;6.314;2022-08-03T14:52:16;32.30;61.90
57829;DHT22;43657;52.698;6.314;2022-08-03T14:54:42;32.30;62.90
57829;DHT22;43657;52.698;6.314;2022-08-03T14:57:10;32.30;62.20
57829;DHT22;43657;52.698;6.314;2022-08-03T14:59:35;32.30;62.20
57829;DHT22;43657;52.698;6.314;2022-08-03T15:02:01;32.30;62.20
57829;DHT22;43657;52.698;6.314;2022-08-03T15:04:26;32.30;62.10
57829;DHT22;43657;52.698;6.314;2022-08-03T15:06:52;32.10;61.40
57829;DHT22;43657;52.698;6.314;2022-08-03T15:09:18;31.80;60.90
57829;DHT22;43657;52.698;6.314;2022-08-03T15:11:43;31.40;61.40
57829;DHT22;43657;52.698;6.314;2022-08-03T15:14:09;31.10;61.80
57829;DHT22;43657;52.698;6.314;2022-08-03T15:16:35;30.80;61.90
57829;DHT22;43657;52.698;6.314;2022-08-03T15:19:01;30.60;63.10
57829;DHT22;43657;52.698;6.314;2022-08-03T15:21:26;30.30;63.80
57829;DHT22;43657;52.698;6.314;2022-08-03T15:23:52;30.20;64.00
57829;DHT22;43657;52.698;6.314;2022-08-03T15:26:18;30.10;63.90
57829;DHT22;43657;52.698;6.314;2022-08-03T15:28:44;29.90;63.80
57829;DHT22;43657;52.698;6.314;2022-08-03T15:31:09;29.80;64.50
57829;DHT22;43657;52.698;6.314;2022-08-03T15:33:36;29.60;65.30
57829;DHT22;43657;52.698;6.314;2022-08-03T15:36:02;29.40;66.00
57829;DHT22;43657;52.698;6.314;2022-08-03T15:38:28;29.30;67.10
57829;DHT22;43657;52.698;6.314;2022-08-03T15:40:54;29.20;66.90
57829;DHT22;43657;52.698;6.314;2022-08-03T15:43:21;29.10;67.30
57829;DHT22;43657;52.698;6.314;2022-08-03T15:45:46;29.00;67.60
57829;DHT22;43657;52.698;6.314;2022-08-03T15:48:12;28.90;68.20
57829;DHT22;43657;52.698;6.314;2022-08-03T15:50:38;28.80;68.40
57829;DHT22;43657;52.698;6.314;2022-08-03T15:53:03;28.70;69.50
57829;DHT22;43657;52.698;6.314;2022-08-03T15:55:29;28.60;69.70
57829;DHT22;43657;52.698;6.314;2022-08-03T15:57:56;28.50;69.60
57829;DHT22;43657;52.698;6.314;2022-08-03T16:00:22;28.40;69.80
57829;DHT22;43657;52.698;6.314;2022-08-03T16:02:48;28.20;69.90
57829;DHT22;43657;52.698;6.314;2022-08-03T16:05:13;28.20;70.50
57829;DHT22;43657;52.698;6.314;2022-08-03T16:07:39;28.10;70.60
57829;DHT22;43657;52.698;6.314;2022-08-03T16:10:08;28.00;70.90
57829;DHT22;43657;52.698;6.314;2022-08-03T16:12:35;27.90;71.00
57829;DHT22;43657;52.698;6.314;2022-08-03T16:15:01;27.90;71.10
57829;DHT22;43657;52.698;6.314;2022-08-03T16:17:27;27.80;71.80
57829;DHT22;43657;52.698;6.314;2022-08-03T16:19:52;27.80;72.20
57829;DHT22;43657;52.698;6.314;2022-08-03T16:22:18;27.70;72.50
57829;DHT22;43657;52.698;6.314;2022-08-03T16:24:43;27.70;73.10
57829;DHT22;43657;52.698;6.314;2022-08-03T16:27:09;27.60;73.60
57829;DHT22;43657;52.698;6.314;2022-08-03T16:29:35;27.50;73.40
57829;DHT22;43657;52.698;6.314;2022-08-03T16:32:00;27.40;74.00
57829;DHT22;43657;52.698;6.314;2022-08-03T16:34:32;27.40;74.10
57829;DHT22;43657;52.698;6.314;2022-08-03T16:36:58;27.40;74.80
57829;DHT22;43657;52.698;6.314;2022-08-03T16:39:24;27.30;75.20
57829;DHT22;43657;52.698;6.314;2022-08-03T16:41:49;27.20;75.50
57829;DHT22;43657;52.698;6.314;2022-08-03T16:44:15;27.20;75.80
57829;DHT22;43657;52.698;6.314;2022-08-03T16:46:40;27.10;75.80
57829;DHT22;43657;52.698;6.314;2022-08-03T16:49:08;27.00;76.00
57829;DHT22;43657;52.698;6.314;2022-08-03T16:51:33;27.00;76.10
57829;DHT22;43657;52.698;6.314;2022-08-03T16:54:02;26.90;76.20
57829;DHT22;43657;52.698;6.314;2022-08-03T16:56:28;26.90;76.90
57829;DHT22;43657;52.698;6.314;2022-08-03T16:58:53;26.80;76.80
57829;DHT22;43657;52.698;6.314;2022-08-03T17:01:19;26.80;77.60
57829;DHT22;43657;52.698;6.314;2022-08-03T17:03:44;26.70;77.90
57829;DHT22;43657;52.698;6.314;2022-08-03T17:06:10;26.70;78.10
57829;DHT22;43657;52.698;6.314;2022-08-03T17:08:36;26.60;78.50
57829;DHT22;43657;52.698;6.314;2022-08-03T17:11:07;26.50;79.00
57829;DHT22;43657;52.698;6.314;2022-08-03T17:13:33;26.50;78.20
57829;DHT22;43657;52.698;6.314;2022-08-03T17:16:02;26.40;78.60